Time;durP1;ratioP1;P1;durP2;ratioP2;P2;SDS_P1;SDS_P2;PMS_P1;PMS_P2;Temp;Humidity;BMP_temperature;BMP_pressure;BME280_temperature;BME280_humidity;BME280_pressure;Samples;Min_cycle;Max_cycle;Signal;HPM_P1;HPM_P2
2022/04/20 00:00:32;;;;;;;;;36.25;32.25;;;;;10.43;63.94;100339.03;5078497;27;45315;-64
2022/04/20 00:02:58;;;;;;;;;34.75;30.25;;;;;10.42;64.18;100340.81;5078195;28;46355;-64
2022/04/20 00:05:23;;;;;;;;;38.00;32.75;;;;;10.42;63.92;100338.19;5078056;27;45514;-64
2022/04/20 00:07:49;;;;;;;;;35.25;32.50;;;;;10.43;63.89;100337.28;5078466;27;45335;-64
2022/04/20 00:10:15;;;;;;;;;33.75;30.75;;;;;10.41;64.51;100335.63;5078425;27;45483;-64
2022/04/20 00:12:40;;;;;;;;;31.00;27.00;;;;;10.43;64.36;100336.41;5077882;27;46507;-64
2022/04/20 00:15:06;;;;;;;;;36.50;32.00;;;;;10.41;64.47;100332.97;5078026;27;45385;-64
2022/04/20 00:17:32;;;;;;;;;26.25;26.00;;;;;10.42;64.45;100343.44;5078068;27;45277;-65
2022/04/20 00:19:57;;;;;;;;;37.75;33.75;;;;;10.41;64.10;100336.47;5078095;27;45670;-64
2022/04/20 00:22:22;;;;;;;;;38.50;32.25;;;;;10.40;64.68;100336.53;5077722;27;46158;-64
2022/04/20 00:24:48;;;;;;;;;43.50;33.00;;;;;10.40;64.30;100340.03;5078171;27;45337;-65
2022/04/20 00:27:13;;;;;;;;;42.00;35.00;;;;;10.38;64.42;100337.41;5078017;27;45243;-64
2022/04/20 00:29:38;;;;;;;;;36.75;31.50;;;;;10.34;64.63;100333.22;5077902;27;45618;-63
2022/04/20 00:32:04;;;;;;;;;39.75;33.25;;;;;10.30;64.65;100331.66;5077474;27;45262;-64
2022/04/20 00:34:30;;;;;;;;;38.50;34.00;;;;;10.29;64.86;100337.81;5077554;27;45212;-63
2022/04/20 00:36:55;;;;;;;;;40.25;30.50;;;;;10.25;64.96;100330.97;5077760;27;45243;-64
2022/04/20 00:39:21;;;;;;;;;41.00;35.00;;;;;10.23;65.55;100331.06;5078210;27;45469;-64
2022/04/20 00:41:46;;;;;;;;;41.50;32.25;;;;;10.19;65.20;100323.38;5077534;27;45315;-63
2022/04/20 00:44:12;;;;;;;;;40.50;34.75;;;;;10.18;65.25;100332.16;5077552;27;45229;-64
2022/04/20 00:46:40;;;;;;;;;38.75;32.00;;;;;10.13;65.29;100321.88;5077540;27;45403;-64
2022/04/20 00:49:06;;;;;;;;;37.25;34.75;;;;;10.10;66.02;100329.88;5078126;27;45493;-64
2022/04/20 00:51:31;;;;;;;;;41.00;37.00;;;;;10.06;65.80;100326.50;5077521;27;45640;-64
2022/04/20 00:53:58;;;;;;;;;46.75;36.00;;;;;10.04;65.94;100323.09;5077724;27;45413;-64
2022/04/20 00:56:24;;;;;;;;;48.25;38.50;;;;;10.00;65.93;100311.00;5077512;27;45232;-62
2022/04/20 00:58:51;;;;;;;;;47.50;37.25;;;;;10.02;66.00;100319.69;5078128;27;45390;-63
2022/04/20 01:01:16;;;;;;;;;42.50;34.25;;;;;9.98;66.65;100317.22;5077217;27;46344;-63
2022/04/20 01:03:43;;;;;;;;;47.00;36.50;;;;;9.98;66.52;100323.34;5077379;27;45246;-63
2022/04/20 01:06:08;;;;;;;;;45.00;36.00;;;;;9.90;66.88;100314.94;5075984;27;45814;-64
2022/04/20 01:08:34;;;;;;;;;45.25;38.25;;;;;9.89;67.31;100313.22;5077712;27;45510;-63
2022/04/20 01:10:59;;;;;;;;;40.25;35.25;;;;;9.87;67.14;100317.69;5075704;28;46015;-64
2022/04/20 01:13:25;;;;;;;;;43.25;38.00;;;;;9.85;67.42;100309.88;5077297;28;45398;-64
2022/04/20 01:15:50;;;;;;;;;46.00;38.25;;;;;9.84;67.21;100313.41;5077593;27;45433;-65
2022/04/20 01:18:16;;;;;;;;;47.25;38.00;;;;;9.82;67.64;100306.53;5077346;27;45555;-63
2022/04/20 01:20:42;;;;;;;;;46.50;37.00;;;;;9.81;67.29;100310.91;5075386;28;48459;-64
2022/04/20 01:23:10;;;;;;;;;49.25;39.25;;;;;9.81;67.63;100310.06;5076925;28;45366;-64
2022/04/20 01:25:35;;;;;;;;;53.75;42.25;;;;;9.78;67.49;100305.78;5076994;27;45408;-64
2022/04/20 01:28:01;;;;;;;;;53.25;41.25;;;;;9.73;67.64;100302.50;5077180;27;45542;-64
2022/04/20 01:30:26;;;;;;;;;47.50;38.50;;;;;9.74;67.84;100306.84;5076675;27;45981;-63
2022/04/20 01:32:55;;;;;;;;;49.50;40.50;;;;;9.71;68.22;100305.19;5077153;27;45227;-63
2022/04/20 01:35:20;;;;;;;;;51.00;39.00;;;;;9.68;67.48;100310.59;5077017;27;45400;-63
2022/04/20 01:37:46;;;;;;;;;47.75;39.00;;;;;9.64;68.46;100296.72;5076884;27;45322;-63
2022/04/20 01:40:11;;;;;;;;;50.00;40.50;;;;;9.63;68.69;100302.03;5076365;27;45333;-63
2022/04/20 01:42:36;;;;;;;;;49.25;42.25;;;;;9.61;68.44;100307.34;5076530;27;45383;-64
2022/04/20 01:45:02;;;;;;;;;50.75;40.75;;;;;9.59;68.56;100311.78;5075207;27;45443;-62
2022/04/20 01:47:27;;;;;;;;;50.25;40.75;;;;;9.57;68.72;100303.13;5076552;27;45544;-64
2022/04/20 01:49:52;;;;;;;;;56.75;44.75;;;;;9.56;68.94;100306.66;5075031;27;47487;-64
2022/04/20 01:52:18;;;;;;;;;49.25;41.50;;;;;9.49;68.87;100294.72;5076366;27;48766;-64
2022/04/20 01:54:43;;;;;;;;;50.00;41.75;;;;;9.51;68.91;100303.38;5076521;27;45244;-63
2022/04/20 01:57:09;;;;;;;;;55.00;43.75;;;;;9.50;69.16;100313.00;5076576;27;45551;-64
2022/04/20 01:59:34;;;;;;;;;55.00;46.00;;;;;9.48;69.08;100308.75;5076037;27;46093;-63
2022/04/20 02:04:44;;;;;;;;;59.00;45.75;;;;;9.41;69.31;100309.91;5076373;27;45394;-63
2022/04/20 02:07:09;;;;;;;;;59.50;45.25;;;;;9.41;69.34;100310.75;5076421;27;45268;-62
2022/04/20 02:09:34;;;;;;;;;53.25;44.50;;;;;9.39;69.24;100301.25;5076102;27;46166;-63
2022/04/20 02:12:00;;;;;;;;;54.50;44.75;;;;;9.41;69.37;100300.25;5076129;27;45337;-64
2022/04/20 02:14:26;;;;;;;;;54.75;42.75;;;;;9.37;69.45;100301.28;5076557;27;45298;-64
2022/04/20 02:16:52;;;;;;;;;58.25;47.50;;;;;9.38;69.65;100303.00;5075790;27;45574;-62
2022/04/20 02:19:17;;;;;;;;;56.00;45.00;;;;;9.35;69.77;100303.13;5075787;27;45605;-62
2022/04/20 02:21:43;;;;;;;;;56.25;45.00;;;;;9.36;69.89;100296.94;5076072;27;45275;-62
2022/04/20 02:24:10;;;;;;;;;51.50;43.00;;;;;9.34;70.26;100293.53;5076320;27;45457;-64
2022/04/20 02:26:35;;;;;;;;;59.00;45.25;;;;;9.32;70.37;100287.50;5076650;27;45335;-62
2022/04/20 02:29:01;;;;;;;;;56.00;46.00;;;;;9.31;70.32;100281.41;5076081;27;46427;-63
2022/04/20 02:31:26;;;;;;;;;57.75;46.25;;;;;9.29;70.20;100283.22;5075954;27;45360;-61
2022/04/20 02:33:51;;;;;;;;;56.50;46.75;;;;;9.30;70.15;100290.19;5075836;27;45298;-64
2022/04/20 02:36:17;;;;;;;;;56.25;45.50;;;;;9.27;70.38;100279.81;5075998;27;45457;-61
2022/04/20 02:38:43;;;;;;;;;52.75;43.50;;;;;9.23;70.74;100266.84;5075525;27;45500;-63
2022/04/20 02:41:08;;;;;;;;;52.50;43.75;;;;;9.20;70.83;100268.69;5075904;27;45564;-62
2022/04/20 02:43:34;;;;;;;;;56.00;44.00;;;;;9.18;71.05;100270.53;5075704;27;45324;-62
2022/04/20 02:46:00;;;;;;;;;57.50;46.00;;;;;9.15;71.09;100265.41;5075820;27;45247;-61
2022/04/20 02:48:25;;;;;;;;;63.75;48.00;;;;;9.13;71.06;100264.59;5075591;27;46134;-61
2022/04/20 02:50:50;;;;;;;;;56.75;45.25;;;;;9.07;71.29;100259.59;5075386;27;45373;-61
2022/04/20 02:53:16;;;;;;;;;58.75;46.50;;;;;9.11;71.49;100268.22;5074395;27;45419;-63
2022/04/20 02:55:44;;;;;;;;;54.00;41.75;;;;;9.08;70.88;100263.94;5075868;27;45543;-62
2022/04/20 02:58:09;;;;;;;;;60.25;45.75;;;;;9.02;71.56;100245.81;5075411;27;45434;-63
2022/04/20 03:00:36;;;;;;;;;58.25;48.00;;;;;9.06;71.11;100258.75;5074019;27;45429;-61
2022/04/20 03:03:01;;;;;;;;;56.75;45.00;;;;;9.06;71.14;100261.38;5075421;27;45393;-60
2022/04/20 03:05:26;;;;;;;;;59.25;46.00;;;;;9.02;71.17;100251.91;5075984;27;45343;-62
2022/04/20 03:07:52;;;;;;;;;59.50;45.00;;;;;9.04;71.79;100254.47;5075371;27;46045;-62
2022/04/20 03:10:17;;;;;;;;;60.50;48.00;;;;;9.02;71.48;100257.16;5075246;27;45428;-63
2022/04/20 03:12:44;;;;;;;;;59.25;46.00;;;;;9.01;71.40;100251.97;5075358;27;45264;-62
2022/04/20 03:15:09;;;;;;;;;60.25;48.00;;;;;8.97;71.70;100242.50;5075663;27;45623;-63
2022/04/20 03:17:35;;;;;;;;;58.00;45.50;;;;;8.94;71.59;100232.13;5074957;27;45462;-61
2022/04/20 03:20:00;;;;;;;;;60.50;46.75;;;;;8.97;71.74;100235.47;5075739;27;45257;-63
2022/04/20 03:22:26;;;;;;;;;56.75;45.50;;;;;8.97;71.56;100237.25;5075794;27;45825;-63
2022/04/20 03:24:51;;;;;;;;;66.25;51.00;;;;;9.00;71.54;100242.38;5075319;27;45280;-63
2022/04/20 03:27:16;;;;;;;;;62.25;50.00;;;;;9.02;71.30;100245.81;5074979;27;46299;-64
2022/04/20 03:29:42;;;;;;;;;66.00;51.25;;;;;9.03;71.87;100244.88;5077212;27;45307;-65
2022/04/20 03:32:09;;;;;;;;;60.00;49.25;;;;;9.03;71.60;100256.25;5078738;27;45381;-64
2022/04/20 03:34:35;;;;;;;;;58.75;46.75;;;;;9.02;71.04;100254.53;5079099;27;45527;-65
2022/04/20 03:37:01;;;;;;;;;60.00;47.50;;;;;9.02;71.72;100257.16;5078761;27;46278;-62
2022/04/20 03:39:26;;;;;;;;;59.50;47.00;;;;;9.05;71.72;100261.44;5078724;27;45422;-65
2022/04/20 03:41:52;;;;;;;;;61.50;48.00;;;;;9.03;71.82;100272.00;5077329;28;45458;-63
2022/04/20 03:44:17;;;;;;;;;64.25;51.75;;;;;9.03;71.06;100265.88;5078912;27;45639;-62
2022/04/20 03:46:42;;;;;;;;;65.75;51.50;;;;;9.00;71.46;100260.75;5076899;27;47991;-62
2022/04/20 03:49:08;;;;;;;;;69.00;52.50;;;;;8.97;71.39;100274.81;5078514;27;45359;-62
2022/04/20 03:51:33;;;;;;;;;64.00;51.00;;;;;8.97;71.72;100271.38;5078353;27;45236;-61
2022/04/20 03:53:58;;;;;;;;;65.00;51.00;;;;;8.98;71.50;100273.06;5078815;27;45314;-63
2022/04/20 03:56:24;;;;;;;;;66.75;51.75;;;;;8.99;71.31;100283.50;5078123;27;45630;-64
2022/04/20 03:58:49;;;;;;;;;64.00;50.25;;;;;8.67;71.42;100241.00;5078120;27;45414;-62
2022/04/20 04:01:14;;;;;;;;;60.50;48.00;;;;;8.96;71.95;100288.00;5076835;27;45417;-62
2022/04/20 04:03:40;;;;;;;;;68.75;54.00;;;;;8.97;72.09;100287.94;5078741;27;45156;-62
2022/04/20 04:06:06;;;;;;;;;62.00;50.00;;;;;8.95;71.66;100286.31;5078467;27;46731;-61
2022/04/20 04:08:31;;;;;;;;;66.00;51.50;;;;;8.97;71.90;100285.31;5078213;27;45295;-60
2022/04/20 04:10:56;;;;;;;;;66.00;53.25;;;;;8.98;71.87;100284.41;5078126;27;45251;-62
2022/04/20 04:13:22;;;;;;;;;66.75;52.25;;;;;8.98;71.48;100273.06;5078318;27;45223;-62
2022/04/20 04:15:49;;;;;;;;;62.00;50.00;;;;;8.98;71.91;100267.81;5077593;27;45582;-62
2022/04/20 04:18:14;;;;;;;;;68.25;54.50;;;;;8.99;71.49;100259.88;5077831;27;45453;-62
2022/04/20 04:20:40;;;;;;;;;55.25;46.75;;;;;9.03;71.42;100260.63;5078036;27;45429;-62
2022/04/20 04:23:06;;;;;;;;;67.00;49.50;;;;;9.03;71.32;100258.00;5077782;27;48986;-64
2022/04/20 04:25:31;;;;;;;;;73.25;56.50;;;;;9.03;71.28;100258.88;5077917;27;45450;-60
2022/04/20 04:27:57;;;;;;;;;65.50;52.00;;;;;9.08;71.42;100260.47;5077745;27;45306;-62
2022/04/20 04:30:22;;;;;;;;;69.25;54.50;;;;;9.09;70.96;100260.38;5077898;27;45378;-60
2022/04/20 04:32:47;;;;;;;;;62.75;50.25;;;;;9.09;70.79;100262.19;5077237;27;45436;-60
2022/04/20 04:35:13;;;;;;;;;65.75;51.75;;;;;9.16;71.05;100274.13;5076697;27;45476;-63
2022/04/20 04:37:39;;;;;;;;;65.50;52.25;;;;;9.18;71.31;100274.94;5076354;27;45351;-62
2022/04/20 04:40:06;;;;;;;;;66.50;51.75;;;;;9.19;70.85;100274.84;5076163;27;45216;-63
2022/04/20 04:42:31;;;;;;;;;71.25;57.50;;;;;9.19;70.80;100268.78;5076971;27;45557;-62
2022/04/20 04:48:36;;;;;;;;;69.75;53.25;;;;;9.18;70.66;100270.53;5076213;27;45431;-61
2022/04/20 04:50:28;;;;;;;;;62.50;51.25;;;;;9.17;70.59;100279.31;5076373;28;45621;-61
2022/04/20 04:52:54;;;;;;;;;67.75;53.50;;;;;9.17;70.23;100287.19;5076691;27;45239;-62
2022/04/20 04:55:19;;;;;;;;;68.50;55.00;;;;;9.21;70.49;100288.78;5074629;27;48566;-63
2022/04/20 04:57:45;;;;;;;;;62.50;50.25;;;;;9.20;70.34;100287.06;5076450;28;45459;-62
2022/04/20 05:00:11;;;;;;;;;59.25;49.50;;;;;9.22;70.50;100287.00;5076152;27;45295;-62
2022/04/20 05:02:36;;;;;;;;;57.67;47.00;;;;;9.25;70.27;100280.78;5076339;28;45400;-62
2022/04/20 05:05:01;;;;;;;;;67.25;53.50;;;;;9.28;70.26;100280.66;5076152;27;45441;-63
2022/04/20 05:07:27;;;;;;;;;61.00;48.75;;;;;9.31;70.39;100288.41;5075854;27;45447;-63
2022/04/20 05:09:52;;;;;;;;;71.00;54.25;;;;;9.32;70.01;100283.09;5076005;27;45238;-62
2022/04/20 05:12:19;;;;;;;;;69.50;54.00;;;;;9.37;69.86;100275.03;5075960;27;45450;-64
2022/04/20 05:14:45;;;;;;;;;68.25;53.50;;;;;9.45;69.53;100280.81;5075720;27;46437;-63
2022/04/20 05:17:10;;;;;;;;;66.50;52.50;;;;;9.49;69.15;100278.94;5075509;27;45397;-65
2022/04/20 05:19:35;;;;;;;;;71.00;55.00;;;;;9.53;69.05;100271.78;5076080;27;45397;-62
2022/04/20 05:22:01;;;;;;;;;65.50;51.50;;;;;9.58;68.83;100275.09;5075657;27;45365;-65
2022/04/20 05:24:26;;;;;;;;;70.00;54.00;;;;;9.58;68.58;100268.06;5075328;27;46511;-63
2022/04/20 05:26:52;;;;;;;;;64.33;51.00;;;;;9.63;68.53;100273.16;5075204;27;45197;-64
2022/04/20 05:29:19;;;;;;;;;72.50;56.50;;;;;9.66;68.43;100283.53;5075492;27;45196;-63
2022/04/20 05:33:45;;;;;;;;;71.00;52.33;;;;;9.71;68.10;100283.31;5050306;28;45425;-64
2022/04/20 05:36:11;;;;;;;;;66.50;49.75;;;;;9.70;68.06;100287.72;5031475;28;45399;-64
2022/04/20 05:44:05;;;;;;;;;69.75;53.50;;;;;9.86;67.50;100298.44;5031524;28;45324;-65
2022/04/20 05:46:33;;;;;;;;;70.25;55.50;;;;;9.97;67.39;100294.50;5031080;28;45407;-64
2022/04/20 05:48:58;;;;;;;;;68.00;52.75;;;;;9.97;67.10;100292.75;5031100;28;45349;-63
2022/04/20 05:51:24;;;;;;;;;68.00;52.00;;;;;10.04;67.07;100298.56;5031142;28;45175;-63
2022/04/20 05:53:49;;;;;;;;;70.75;53.00;;;;;10.12;67.15;100303.53;5031012;28;46334;-62
2022/04/20 05:56:14;;;;;;;;;74.75;59.75;;;;;10.16;66.95;100303.34;5030834;28;45337;-64
2022/04/20 05:58:40;;;;;;;;;62.00;51.50;;;;;10.22;66.64;100296.94;5012991;28;45383;-65
2022/04/20 06:01:05;;;;;;;;;64.50;51.75;;;;;10.24;66.60;100287.22;5031415;28;45491;-64
2022/04/20 06:03:31;;;;;;;;;67.25;53.00;;;;;10.26;66.27;100287.16;5030546;28;46194;-64
2022/04/20 06:05:56;;;;;;;;;67.00;52.25;;;;;10.26;66.05;100277.50;5030947;28;45368;-62
2022/04/20 06:08:21;;;;;;;;;70.00;55.00;;;;;10.35;66.05;100273.63;5031161;28;45379;-61
2022/04/20 06:10:46;;;;;;;;;66.75;51.75;;;;;10.42;65.87;100272.44;5031205;28;45546;-62
2022/04/20 06:13:12;;;;;;;;;65.50;52.00;;;;;10.51;65.51;100282.56;5030535;28;45614;-64
2022/04/20 06:15:38;;;;;;;;;66.75;53.00;;;;;10.58;64.99;100287.53;5031033;28;45396;-64
2022/04/20 06:18:03;;;;;;;;;70.75;54.50;;;;;10.62;65.15;100282.09;5030775;28;45329;-65
2022/04/20 06:20:29;;;;;;;;;69.25;54.25;;;;;10.74;64.65;100290.34;5030596;28;45304;-63
2022/04/20 06:22:54;;;;;;;;;66.50;53.00;;;;;10.81;64.41;100292.59;5030380;28;45379;-63
2022/04/20 06:25:19;;;;;;;;;69.75;53.75;;;;;10.89;64.19;100288.78;5030215;28;45394;-62
2022/04/20 06:27:45;;;;;;;;;67.25;52.50;;;;;10.93;63.77;100287.69;5028240;28;45456;-64
2022/04/20 06:30:10;;;;;;;;;61.00;48.00;;;;;10.89;63.32;100284.38;5030999;28;45415;-67
2022/04/20 06:32:36;;;;;;;;;66.50;52.00;;;;;10.99;63.03;100294.47;5045626;28;45808;-68
2022/04/20 06:35:02;;;;;;;;;68.75;52.50;;;;;10.99;62.71;100290.03;5037886;28;45326;-68
2022/04/20 06:37:28;;;;;;;;;64.00;50.00;;;;;11.02;63.25;100286.44;5038351;28;45407;-65
2022/04/20 06:39:56;;;;;;;;;65.00;51.00;;;;;11.10;62.93;100286.94;5026824;28;45392;-65
2022/04/20 06:42:22;;;;;;;;;58.25;48.25;;;;;11.19;62.82;100278.59;5033174;28;46577;-66
2022/04/20 06:44:47;;;;;;;;;63.25;50.00;;;;;11.31;62.36;100286.81;5032334;28;45406;-67
2022/04/20 06:47:12;;;;;;;;;65.00;49.50;;;;;11.36;61.96;100280.44;5025660;28;45422;-64
2022/04/20 06:49:38;;;;;;;;;63.75;50.50;;;;;11.48;61.54;100286.84;5023950;28;45371;-62
2022/04/20 07:00:16;;;;;;;;;63.00;50.00;;;;;11.86;60.25;100282.41;5016626;28;45526;-66
2022/04/20 07:02:42;;;;;;;;;65.50;49.25;;;;;11.96;60.67;100281.03;5015689;28;46185;-66
2022/04/20 07:05:09;;;;;;;;;59.25;47.25;;;;;11.98;60.18;100293.19;5017121;28;45400;-66
2022/04/20 07:07:34;;;;;;;;;57.00;44.00;;;;;12.04;60.13;100289.44;5016637;28;45429;-68
2022/04/20 07:10:00;;;;;;;;;63.50;48.25;;;;;12.08;60.04;100290.09;5016853;28;45499;-65
2022/04/20 07:12:25;;;;;;;;;62.75;50.25;;;;;12.12;60.37;100296.91;5015676;28;45596;-66
2022/04/20 07:14:51;;;;;;;;;61.50;50.00;;;;;12.06;59.10;100284.06;5015833;28;48209;-68
2022/04/20 07:17:17;;;;;;;;;61.75;50.00;;;;;11.96;59.42;100273.97;5016796;28;45536;-65
2022/04/20 07:19:42;;;;;;;;;59.50;48.75;;;;;12.12;59.21;100289.00;5015902;28;45607;-66
2022/04/20 07:22:07;;;;;;;;;61.75;47.25;;;;;12.11;59.25;100280.28;5016786;28;46417;-66
2022/04/20 07:24:33;;;;;;;;;57.50;43.75;;;;;12.27;59.32;100297.94;5016094;28;45351;-64
2022/04/20 07:26:58;;;;;;;;;64.50;50.25;;;;;12.45;59.06;100292.63;5016649;28;45379;-66
2022/04/20 07:29:24;;;;;;;;;59.75;47.50;;;;;12.53;58.94;100280.75;5016294;28;45443;-67
2022/04/20 07:31:49;;;;;;;;;62.00;47.25;;;;;12.73;58.36;100294.66;5015516;28;46206;-63
2022/04/20 07:34:14;;;;;;;;;61.75;49.00;;;;;12.83;57.52;100293.22;5014575;28;45348;-67
2022/04/20 07:36:40;;;;;;;;;58.75;47.50;;;;;13.04;57.39;100310.63;5016776;28;45393;-67
2022/04/20 07:39:05;;;;;;;;;56.75;45.75;;;;;13.13;57.36;100302.19;5016218;28;45274;-67
2022/04/20 07:41:30;;;;;;;;;63.25;47.50;;;;;13.31;57.59;100308.25;5014469;28;46448;-69
2022/04/20 07:43:56;;;;;;;;;55.25;44.00;;;;;13.54;56.29;100306.94;5016043;28;45242;-68
2022/04/20 07:46:22;;;;;;;;;63.00;48.75;;;;;13.69;55.72;100302.59;5015558;28;45183;-65
2022/04/20 07:48:48;;;;;;;;;59.75;48.00;;;;;13.91;56.06;100303.97;5016150;28;45548;-63
2022/04/20 07:51:13;;;;;;;;;53.50;44.25;;;;;14.16;55.85;100299.88;5015677;28;45384;-64
2022/04/20 07:53:39;;;;;;;;;52.25;43.00;;;;;14.38;54.37;100306.53;4998110;28;45332;-66
2022/04/20 07:56:05;;;;;;;;;54.25;43.00;;;;;14.41;53.69;100304.56;5014550;28;45310;-66
2022/04/20 07:58:30;;;;;;;;;51.25;42.75;;;;;14.50;52.93;100312.88;5016050;28;45429;-64
2022/04/20 08:00:57;;;;;;;;;47.75;39.00;;;;;14.52;52.65;100313.63;5015714;28;45452;-69
2022/04/20 08:03:23;;;;;;;;;50.50;38.25;;;;;14.32;52.16;100274.22;5015968;28;45788;-67
2022/04/20 08:05:52;;;;;;;;;48.25;40.50;;;;;14.51;52.40;100317.22;5015921;28;45304;-67
2022/04/20 08:08:18;;;;;;;;;47.25;40.50;;;;;14.55;52.45;100316.09;5015828;28;45484;-67
2022/04/20 08:10:43;;;;;;;;;49.00;38.50;;;;;14.58;51.97;100302.66;5015336;28;46196;-65
2022/04/20 08:15:54;;;;;;;;;44.25;36.00;;;;;14.79;51.64;100304.94;5015223;28;45372;-66
2022/04/20 08:18:20;;;;;;;;;46.00;36.50;;;;;14.90;50.96;100292.75;5015369;28;45475;-67
2022/04/20 08:20:45;;;;;;;;;39.75;34.00;;;;;14.96;50.09;100307.41;5015186;28;45434;-66
2022/04/20 08:23:11;;;;;;;;;45.00;38.00;;;;;14.99;49.27;100307.22;5015728;28;45387;-68
2022/04/20 08:25:36;;;;;;;;;37.75;33.50;;;;;14.95;49.48;100297.78;5015159;28;45452;-69
2022/04/20 08:28:02;;;;;;;;;44.25;35.75;;;;;14.98;48.93;100305.53;5015377;28;45292;-67
2022/04/20 08:30:28;;;;;;;;;44.50;37.00;;;;;14.95;48.97;100313.66;5015209;28;45637;-68
2022/04/20 08:32:53;;;;;;;;;37.25;33.50;;;;;14.98;49.15;100308.19;5015145;28;45276;-67
2022/04/20 08:35:19;;;;;;;;;38.25;33.25;;;;;15.12;49.06;100304.63;5015538;28;45332;-67
2022/04/20 08:37:45;;;;;;;;;36.00;32.50;;;;;15.25;48.85;100304.72;5015590;28;45531;-65
2022/04/20 08:40:11;;;;;;;;;35.00;32.50;;;;;15.39;48.49;100300.31;5015330;28;45485;-65
2022/04/20 08:42:38;;;;;;;;;40.25;35.75;;;;;15.43;48.13;100301.81;5014991;28;45338;-64
2022/04/20 08:45:04;;;;;;;;;33.75;31.00;;;;;15.57;47.68;100316.81;5015457;28;45380;-68
2022/04/20 08:47:39;;;;;;;;;54.67;40.00;;;;;15.67;47.84;100314.41;5015265;28;45478;-66
2022/04/20 08:50:06;;;;;;;;;37.75;33.00;;;;;15.80;47.67;100304.69;5014906;28;46239;-68
2022/04/20 08:52:37;;;;;;;;;111.25;107.50;;;;;15.97;47.49;100313.38;5014879;28;45352;-66
2022/04/20 08:55:08;;;;;;;;;146.00;142.00;;;;;16.10;46.88;100298.31;5015205;28;45567;-68
2022/04/20 08:57:35;;;;;;;;;34.25;31.50;;;;;16.24;45.64;100307.13;5015237;28;45315;-68
2022/04/20 09:00:01;;;;;;;;;44.75;35.25;;;;;16.31;46.85;100308.41;4996734;28;47574;-66
2022/04/20 09:02:28;;;;;;;;;36.75;30.75;;;;;16.48;45.76;100309.91;5015021;28;45467;-66
2022/04/20 09:04:58;;;;;;;;;38.50;33.25;;;;;16.60;45.95;100314.38;5015007;28;45313;-66
2022/04/20 09:07:25;;;;;;;;;32.75;30.00;;;;;16.72;45.49;100314.47;5014862;28;45547;-66
2022/04/20 09:09:51;;;;;;;;;34.25;29.00;;;;;16.89;45.70;100315.91;5014520;28;46348;-66
2022/04/20 09:12:19;;;;;;;;;36.25;30.00;;;;;16.96;44.81;100311.84;5014642;28;45543;-68
2022/04/20 09:14:50;;;;;;;;;28.25;23.00;;;;;17.13;44.47;100313.34;5015467;28;45486;-64
2022/04/20 09:17:18;;;;;;;;;35.50;30.50;;;;;17.17;44.71;100316.63;5015182;28;45317;-63
2022/04/20 09:19:49;;;;;;;;;27.25;25.25;;;;;17.36;44.44;100319.66;5013851;28;45391;-63
2022/04/20 09:22:30;;;;;;;;;33.25;30.25;;;;;17.39;41.82;100305.25;5014572;28;45295;-65
2022/04/20 09:25:14;;;;;;;;;34.50;32.00;;;;;17.33;42.95;100313.69;5014596;28;45395;-63
2022/04/20 09:27:41;;;;;;;;;28.75;27.00;;;;;17.22;42.64;100315.31;5029778;28;45523;-64
2022/04/20 09:30:15;;;;;;;;;28.50;26.25;;;;;17.25;43.30;100314.25;5014502;28;46306;-63
2022/04/20 09:32:46;;;;;;;;;32.00;28.75;;;;;17.31;42.83;100308.50;5025559;28;45386;-65
2022/04/20 09:35:13;;;;;;;;;35.75;33.00;;;;;17.31;43.44;100308.50;5034118;28;45403;-65
2022/04/20 09:37:40;;;;;;;;;31.50;29.25;;;;;17.28;43.17;100300.75;5034405;28;45578;-65
2022/04/20 09:40:11;;;;;;;;;27.25;25.50;;;;;17.38;43.45;100304.44;5034107;28;45431;-64
2022/04/20 09:42:37;;;;;;;;;31.25;28.00;;;;;17.45;43.13;100306.63;5034432;28;45352;-65
2022/04/20 09:45:05;;;;;;;;;25.50;25.50;;;;;17.51;42.99;100296.41;5034079;28;45453;-64
2022/04/20 09:50:22;;;;;;;;;27.25;27.25;;;;;17.70;42.19;100291.50;5034164;28;45866;-65
2022/04/20 09:52:49;;;;;;;;;22.50;21.75;;;;;17.81;42.72;100289.75;5033920;28;45502;-64
2022/04/20 09:55:25;;;;;;;;;24.50;22.25;;;;;18.04;42.60;100291.69;5015937;28;45377;-64
2022/04/20 09:57:51;;;;;;;;;27.25;21.75;;;;;18.20;41.25;100294.84;5034098;28;45394;-63
2022/04/20 10:00:16;;;;;;;;;26.75;25.75;;;;;18.17;40.98;100294.22;5033539;28;45383;-65
2022/04/20 10:02:47;;;;;;;;;26.25;26.25;;;;;18.20;42.37;100286.00;5033550;28;45405;-65
2022/04/20 10:05:14;;;;;;;;;27.00;23.50;;;;;18.35;42.08;100282.16;5033504;28;45362;-64
2022/04/20 10:07:40;;;;;;;;;23.75;23.75;;;;;18.53;42.31;100290.53;5033200;28;45495;-65
2022/04/20 10:10:07;;;;;;;;;25.75;23.50;;;;;18.65;41.91;100291.38;5033186;28;46140;-66
2022/04/20 10:12:36;;;;;;;;;31.50;31.00;;;;;18.82;41.24;100282.03;5015778;28;45362;-65
2022/04/20 10:17:50;;;;;;;;;28.75;24.25;;;;;19.10;40.98;100284.34;5034218;28;45336;-69
2022/04/20 10:20:16;;;;;;;;;26.25;26.25;;;;;19.20;41.08;100281.78;5035137;28;46002;-70
2022/04/20 10:22:43;;;;;;;;;23.25;23.25;;;;;19.34;41.26;100284.16;5036843;28;45395;-68
2022/04/20 10:25:11;;;;;;;;;23.00;21.75;;;;;19.42;41.03;100275.50;5036823;28;45180;-67
2022/04/20 10:27:57;;;;;;;;;20.00;20.00;;;;;19.47;40.54;100275.16;5036020;28;45271;-71
2022/04/20 10:30:50;;;;;;;;;28.75;22.00;;;;;19.46;40.33;100262.78;5037011;28;46101;-71
2022/04/20 10:33:19;;;;;;;;;20.50;20.50;;;;;19.44;40.34;100265.56;5017515;28;45522;-68
2022/04/20 10:36:05;;;;;;;;;23.50;20.75;;;;;19.47;40.09;100267.13;5026181;28;45727;-66
2022/04/20 10:38:32;;;;;;;;;26.50;23.50;;;;;19.48;39.97;100268.84;5016374;28;45440;-67
2022/04/20 10:40:57;;;;;;;;;21.75;20.50;;;;;19.49;39.53;100268.69;5015290;28;46934;-66
2022/04/20 10:43:25;;;;;;;;;14.75;14.75;;;;;19.40;38.79;100272.97;5015340;28;45337;-67
2022/04/20 10:46:12;;;;;;;;;18.50;17.00;;;;;19.24;38.71;100261.88;5016373;28;45320;-64
2022/04/20 10:48:58;;;;;;;;;16.50;16.50;;;;;19.14;39.85;100250.28;5016342;28;45448;-66
2022/04/20 10:51:30;;;;;;;;;28.75;23.50;;;;;19.17;40.55;100252.69;5015885;28;47175;-67
2022/04/20 10:54:24;;;;;;;;;12.25;12.25;;;;;19.25;39.79;100255.59;5014262;28;46074;-68
2022/04/20 10:57:09;;;;;;;;;17.25;16.50;;;;;19.16;39.32;100251.00;5016314;28;45482;-66
2022/04/20 10:59:34;;;;;;;;;17.25;14.50;;;;;19.11;40.61;100246.91;5016358;28;45151;-66
2022/04/20 11:02:02;;;;;;;;;18.50;16.75;;;;;19.19;40.29;100242.75;5015878;28;45369;-63
2022/04/20 11:04:42;;;;;;;;;16.25;15.75;;;;;19.30;39.81;100239.19;5016271;28;45332;-65
2022/04/20 11:07:07;;;;;;;;;16.75;16.25;;;;;19.47;40.29;100235.97;5016368;28;45237;-67
2022/04/20 11:09:52;;;;;;;;;15.25;15.25;;;;;19.53;38.94;100226.63;5016119;28;45197;-65
2022/04/20 11:18:39;;;;;;;;;16.75;15.00;;;;;19.85;38.23;100225.72;5015940;28;45248;-67
2022/04/20 11:21:04;;;;;;;;;10.75;10.75;;;;;19.85;37.43;100215.91;5015669;28;45337;-63
2022/04/20 11:23:48;;;;;;;;;13.75;13.50;;;;;19.84;38.22;100214.19;5015792;28;46765;-67
2022/04/20 11:26:20;;;;;;;;;10.25;9.00;;;;;19.89;37.26;100213.78;5016201;28;45349;-71
2022/04/20 11:28:47;;;;;;;;;8.75;8.75;;;;;19.96;37.70;100217.66;5016157;28;45312;-68
2022/04/20 11:31:13;;;;;;;;;10.00;10.00;;;;;19.95;35.91;100210.63;5016144;28;45168;-69
2022/04/20 11:33:41;;;;;;;;;12.75;10.75;;;;;19.92;35.94;100212.72;5015441;28;46478;-69
2022/04/20 11:36:11;;;;;;;;;8.25;8.00;;;;;19.97;35.99;100214.00;5014714;28;45364;-69
2022/04/20 11:38:41;;;;;;;;;13.25;10.00;;;;;20.08;36.71;100206.91;5014359;28;45475;-68
2022/04/20 11:41:07;;;;;;;;;14.75;13.50;;;;;20.25;35.57;100210.78;5015923;28;45444;-66
2022/04/20 11:43:35;;;;;;;;;8.50;8.50;;;;;20.38;34.04;100207.91;5015796;28;45429;-64
2022/04/20 11:46:01;;;;;;;;;7.00;6.75;;;;;20.49;32.69;100199.78;5015409;28;45717;-67